sensor_id;sensor_type;location;lat;lon;timestamp;temperature;humidity
65637;DHT22;52327;42.622;23.316;2022-08-01T00:00:11;17.97;59.02
65637;DHT22;52327;42.622;23.316;2022-08-01T00:02:37;17.98;56.90
65637;DHT22;52327;42.622;23.316;2022-08-01T00:05:03;17.89;57.02
65637;DHT22;52327;42.622;23.316;2022-08-01T00:07:31;17.87;57.48
65637;DHT22;52327;42.622;23.316;2022-08-01T00:09:57;17.81;56.66
65637;DHT22;52327;42.622;23.316;2022-08-01T00:12:22;17.70;56.02
65637;DHT22;52327;42.622;23.316;2022-08-01T00:14:48;17.78;56.78
65637;DHT22;52327;42.622;23.316;2022-08-01T00:17:13;17.81;56.68
65637;DHT22;52327;42.622;23.316;2022-08-01T00:19:39;17.92;54.16
65637;DHT22;52327;42.622;23.316;2022-08-01T00:22:04;17.89;55.30
65637;DHT22;52327;42.622;23.316;2022-08-01T00:24:30;17.92;53.45
65637;DHT22;52327;42.622;23.316;2022-08-01T00:26:55;17.92;53.48
65637;DHT22;52327;42.622;23.316;2022-08-01T00:29:21;17.94;53.86
65637;DHT22;52327;42.622;23.316;2022-08-01T00:31:46;17.91;54.28
65637;DHT22;52327;42.622;23.316;2022-08-01T00:34:11;17.94;55.67
65637;DHT22;52327;42.622;23.316;2022-08-01T00:36:37;17.87;52.09
65637;DHT22;52327;42.622;23.316;2022-08-01T00:39:02;17.92;50.17
65637;DHT22;52327;42.622;23.316;2022-08-01T00:41:28;17.94;50.13
65637;DHT22;52327;42.622;23.316;2022-08-01T00:43:53;17.95;48.93
65637;DHT22;52327;42.622;23.316;2022-08-01T00:46:19;17.94;51.24
65637;DHT22;52327;42.622;23.316;2022-08-01T00:48:45;17.89;49.52
65637;DHT22;52327;42.622;23.316;2022-08-01T00:51:10;17.85;51.39
65637;DHT22;52327;42.622;23.316;2022-08-01T00:53:36;17.82;52.42
65637;DHT22;52327;42.622;23.316;2022-08-01T00:56:01;17.81;52.44
65637;DHT22;52327;42.622;23.316;2022-08-01T00:58:28;17.77;52.53
65637;DHT22;52327;42.622;23.316;2022-08-01T01:00:56;17.73;53.09
65637;DHT22;52327;42.622;23.316;2022-08-01T01:03:23;17.74;52.31
65637;DHT22;52327;42.622;23.316;2022-08-01T01:05:56;17.73;52.55
65637;DHT22;52327;42.622;23.316;2022-08-01T01:08:30;17.75;54.36
65637;DHT22;52327;42.622;23.316;2022-08-01T01:11:12;17.71;54.15
65637;DHT22;52327;42.622;23.316;2022-08-01T01:14:08;17.61;54.94
65637;DHT22;52327;42.622;23.316;2022-08-01T01:16:37;17.64;54.29
65637;DHT22;52327;42.622;23.316;2022-08-01T01:19:09;17.53;54.48
65637;DHT22;52327;42.622;23.316;2022-08-01T01:27:23;17.33;54.21
65637;DHT22;52327;42.622;23.316;2022-08-01T01:29:55;17.31;53.27
65637;DHT22;52327;42.622;23.316;2022-08-01T01:32:39;17.33;52.01
65637;DHT22;52327;42.622;23.316;2022-08-01T01:35:09;17.47;50.76
65637;DHT22;52327;42.622;23.316;2022-08-01T01:37:38;17.60;50.72
65637;DHT22;52327;42.622;23.316;2022-08-01T01:40:05;17.58;49.48
65637;DHT22;52327;42.622;23.316;2022-08-01T01:42:32;17.60;50.96
65637;DHT22;52327;42.622;23.316;2022-08-01T01:45:03;17.63;47.47
65637;DHT22;52327;42.622;23.316;2022-08-01T01:47:29;17.54;49.04
65637;DHT22;52327;42.622;23.316;2022-08-01T01:49:57;17.50;48.72
65637;DHT22;52327;42.622;23.316;2022-08-01T01:52:24;17.50;50.97
65637;DHT22;52327;42.622;23.316;2022-08-01T01:54:51;17.48;50.42
65637;DHT22;52327;42.622;23.316;2022-08-01T01:57:18;17.48;50.67
65637;DHT22;52327;42.622;23.316;2022-08-01T01:59:46;17.51;49.74
65637;DHT22;52327;42.622;23.316;2022-08-01T02:02:12;17.44;50.21
65637;DHT22;52327;42.622;23.316;2022-08-01T02:04:41;17.46;48.26
65637;DHT22;52327;42.622;23.316;2022-08-01T02:07:09;17.43;48.60
65637;DHT22;52327;42.622;23.316;2022-08-01T02:09:37;17.41;50.09
65637;DHT22;52327;42.622;23.316;2022-08-01T02:12:03;17.38;49.40
65637;DHT22;52327;42.622;23.316;2022-08-01T02:14:32;17.40;48.24
65637;DHT22;52327;42.622;23.316;2022-08-01T02:16:58;17.47;47.49
65637;DHT22;52327;42.622;23.316;2022-08-01T02:19:25;17.46;47.85
65637;DHT22;52327;42.622;23.316;2022-08-01T02:21:56;17.46;47.87
65637;DHT22;52327;42.622;23.316;2022-08-01T02:24:45;17.53;48.43
65637;DHT22;52327;42.622;23.316;2022-08-01T02:27:28;17.55;47.81
65637;DHT22;52327;42.622;23.316;2022-08-01T02:29:58;17.57;48.65
65637;DHT22;52327;42.622;23.316;2022-08-01T02:32:31;17.61;47.53
65637;DHT22;52327;42.622;23.316;2022-08-01T02:34:57;17.63;48.64
65637;DHT22;52327;42.622;23.316;2022-08-01T02:37:26;17.66;48.52
65637;DHT22;52327;42.622;23.316;2022-08-01T02:39:54;17.70;46.97
65637;DHT22;52327;42.622;23.316;2022-08-01T02:42:22;17.74;48.62
65637;DHT22;52327;42.622;23.316;2022-08-01T02:44:49;17.73;47.98
65637;DHT22;52327;42.622;23.316;2022-08-01T02:47:17;17.77;48.19
65637;DHT22;52327;42.622;23.316;2022-08-01T02:49:46;17.78;47.03
65637;DHT22;52327;42.622;23.316;2022-08-01T02:52:15;17.73;48.38
65637;DHT22;52327;42.622;23.316;2022-08-01T02:54:44;17.77;47.96
65637;DHT22;52327;42.622;23.316;2022-08-01T02:57:11;17.71;48.45
65637;DHT22;52327;42.622;23.316;2022-08-01T02:59:38;17.75;50.08
65637;DHT22;52327;42.622;23.316;2022-08-01T03:02:06;17.60;50.07
65637;DHT22;52327;42.622;23.316;2022-08-01T03:04:37;17.60;48.62
65637;DHT22;52327;42.622;23.316;2022-08-01T03:07:06;17.61;50.88
65637;DHT22;52327;42.622;23.316;2022-08-01T03:09:38;17.63;49.41
65637;DHT22;52327;42.622;23.316;2022-08-01T03:12:08;17.51;50.90
65637;DHT22;52327;42.622;23.316;2022-08-01T03:14:35;17.50;51.05
65637;DHT22;52327;42.622;23.316;2022-08-01T03:17:01;17.46;51.05
65637;DHT22;52327;42.622;23.316;2022-08-01T03:19:29;17.53;50.36
65637;DHT22;52327;42.622;23.316;2022-08-01T03:21:56;17.54;50.79
65637;DHT22;52327;42.622;23.316;2022-08-01T03:24:23;17.48;50.17
65637;DHT22;52327;42.622;23.316;2022-08-01T03:26:51;17.51;51.38
65637;DHT22;52327;42.622;23.316;2022-08-01T03:29:21;17.48;52.41
65637;DHT22;52327;42.622;23.316;2022-08-01T03:31:47;17.51;50.95
65637;DHT22;52327;42.622;23.316;2022-08-01T03:34:14;17.53;49.28
65637;DHT22;52327;42.622;23.316;2022-08-01T03:39:14;17.68;51.93
65637;DHT22;52327;42.622;23.316;2022-08-01T03:41:45;17.70;50.04
65637;DHT22;52327;42.622;23.316;2022-08-01T03:44:16;17.74;50.84
65637;DHT22;52327;42.622;23.316;2022-08-01T03:47:04;17.78;49.48
65637;DHT22;52327;42.622;23.316;2022-08-01T03:49:33;17.81;50.70
65637;DHT22;52327;42.622;23.316;2022-08-01T03:52:02;17.82;50.95
65637;DHT22;52327;42.622;23.316;2022-08-01T03:54:31;17.91;52.62
65637;DHT22;52327;42.622;23.316;2022-08-01T03:56:59;17.92;49.29
65637;DHT22;52327;42.622;23.316;2022-08-01T03:59:26;17.97;50.09
65637;DHT22;52327;42.622;23.316;2022-08-01T04:01:52;18.10;49.39
65637;DHT22;52327;42.622;23.316;2022-08-01T04:04:19;18.15;51.50
65637;DHT22;52327;42.622;23.316;2022-08-01T04:06:44;18.19;49.84
65637;DHT22;52327;42.622;23.316;2022-08-01T04:09:11;18.06;50.75
65637;DHT22;52327;42.622;23.316;2022-08-01T04:11:37;18.18;50.41
65637;DHT22;52327;42.622;23.316;2022-08-01T04:14:03;18.15;50.09
65637;DHT22;52327;42.622;23.316;2022-08-01T04:16:28;18.22;49.57
65637;DHT22;52327;42.622;23.316;2022-08-01T04:18:54;18.26;49.84
65637;DHT22;52327;42.622;23.316;2022-08-01T04:21:23;18.30;50.15
65637;DHT22;52327;42.622;23.316;2022-08-01T04:23:50;18.38;49.33
65637;DHT22;52327;42.622;23.316;2022-08-01T04:26:19;18.36;49.75
65637;DHT22;52327;42.622;23.316;2022-08-01T04:28:47;18.40;49.52
65637;DHT22;52327;42.622;23.316;2022-08-01T04:31:15;18.36;49.85
65637;DHT22;52327;42.622;23.316;2022-08-01T04:33:43;18.49;49.84
65637;DHT22;52327;42.622;23.316;2022-08-01T04:36:12;18.49;48.59
65637;DHT22;52327;42.622;23.316;2022-08-01T04:38:42;18.56;49.01
65637;DHT22;52327;42.622;23.316;2022-08-01T04:41:09;18.55;48.98
65637;DHT22;52327;42.622;23.316;2022-08-01T04:43:36;18.63;50.59
65637;DHT22;52327;42.622;23.316;2022-08-01T04:46:02;18.70;49.45
65637;DHT22;52327;42.622;23.316;2022-08-01T04:48:29;18.79;48.61
65637;DHT22;52327;42.622;23.316;2022-08-01T04:50:55;18.87;49.86
65637;DHT22;52327;42.622;23.316;2022-08-01T04:53:20;18.89;49.81
65637;DHT22;52327;42.622;23.316;2022-08-01T04:55:49;18.89;48.24
65637;DHT22;52327;42.622;23.316;2022-08-01T04:58:15;18.89;48.62
65637;DHT22;52327;42.622;23.316;2022-08-01T05:00:40;18.94;48.03
65637;DHT22;52327;42.622;23.316;2022-08-01T05:03:06;18.96;47.98
65637;DHT22;52327;42.622;23.316;2022-08-01T05:05:32;18.99;48.77
65637;DHT22;52327;42.622;23.316;2022-08-01T05:07:57;19.07;48.13
65637;DHT22;52327;42.622;23.316;2022-08-01T05:10:23;19.11;47.41
65637;DHT22;52327;42.622;23.316;2022-08-01T05:12:48;19.07;47.48
65637;DHT22;52327;42.622;23.316;2022-08-01T05:15:13;19.12;47.71
65637;DHT22;52327;42.622;23.316;2022-08-01T05:17:39;19.10;48.48
65637;DHT22;52327;42.622;23.316;2022-08-01T05:20:05;19.20;49.74
65637;DHT22;52327;42.622;23.316;2022-08-01T05:22:33;19.20;48.58
65637;DHT22;52327;42.622;23.316;2022-08-01T05:24:58;19.20;47.74
65637;DHT22;52327;42.622;23.316;2022-08-01T05:27:25;19.31;48.59
65637;DHT22;52327;42.622;23.316;2022-08-01T05:29:50;19.30;48.43
65637;DHT22;52327;42.622;23.316;2022-08-01T05:32:16;19.34;48.31
65637;DHT22;52327;42.622;23.316;2022-08-01T05:34:41;19.27;47.16
65637;DHT22;52327;42.622;23.316;2022-08-01T05:37:06;19.31;47.65
65637;DHT22;52327;42.622;23.316;2022-08-01T05:39:32;19.39;48.37
65637;DHT22;52327;42.622;23.316;2022-08-01T05:41:58;19.30;47.99
65637;DHT22;52327;42.622;23.316;2022-08-01T05:44:23;19.28;47.47
65637;DHT22;52327;42.622;23.316;2022-08-01T05:46:50;19.36;47.45
65637;DHT22;52327;42.622;23.316;2022-08-01T05:49:16;19.36;47.65
65637;DHT22;52327;42.622;23.316;2022-08-01T05:51:41;19.31;47.59
65637;DHT22;52327;42.622;23.316;2022-08-01T05:54:07;19.39;48.75
65637;DHT22;52327;42.622;23.316;2022-08-01T05:56:33;19.41;49.18
65637;DHT22;52327;42.622;23.316;2022-08-01T05:58:58;19.35;47.87
65637;DHT22;52327;42.622;23.316;2022-08-01T06:01:24;19.41;48.36
65637;DHT22;52327;42.622;23.316;2022-08-01T06:03:49;19.52;48.85
65637;DHT22;52327;42.622;23.316;2022-08-01T06:06:14;19.58;49.14
65637;DHT22;52327;42.622;23.316;2022-08-01T06:08:40;19.47;48.01
65637;DHT22;52327;42.622;23.316;2022-08-01T06:11:06;19.55;49.91
65637;DHT22;52327;42.622;23.316;2022-08-01T06:13:31;19.55;48.56
65637;DHT22;52327;42.622;23.316;2022-08-01T06:15:57;19.44;47.97
65637;DHT22;52327;42.622;23.316;2022-08-01T06:18:23;19.45;49.09
65637;DHT22;52327;42.622;23.316;2022-08-01T06:20:48;19.44;49.60
65637;DHT22;52327;42.622;23.316;2022-08-01T06:23:14;19.39;48.98
65637;DHT22;52327;42.622;23.316;2022-08-01T06:25:43;19.51;49.32
65637;DHT22;52327;42.622;23.316;2022-08-01T06:28:09;19.52;49.30
65637;DHT22;52327;42.622;23.316;2022-08-01T06:30:34;19.57;49.53
65637;DHT22;52327;42.622;23.316;2022-08-01T06:33:00;19.59;49.67
65637;DHT22;52327;42.622;23.316;2022-08-01T06:35:26;19.68;49.60
65637;DHT22;52327;42.622;23.316;2022-08-01T06:37:53;19.69;48.89
65637;DHT22;52327;42.622;23.316;2022-08-01T06:40:19;19.58;48.23
65637;DHT22;52327;42.622;23.316;2022-08-01T06:42:45;19.58;49.39
65637;DHT22;52327;42.622;23.316;2022-08-01T06:45:12;19.66;49.06
65637;DHT22;52327;42.622;23.316;2022-08-01T06:47:39;19.68;49.59
65637;DHT22;52327;42.622;23.316;2022-08-01T06:50:06;19.59;49.44
65637;DHT22;52327;42.622;23.316;2022-08-01T06:52:32;19.66;50.41
65637;DHT22;52327;42.622;23.316;2022-08-01T06:54:58;19.90;50.87
65637;DHT22;52327;42.622;23.316;2022-08-01T06:57:23;19.92;49.01
65637;DHT22;52327;42.622;23.316;2022-08-01T06:59:49;19.78;49.89
65637;DHT22;52327;42.622;23.316;2022-08-01T07:02:14;19.65;50.00
65637;DHT22;52327;42.622;23.316;2022-08-01T07:04:40;19.69;51.03
65637;DHT22;52327;42.622;23.316;2022-08-01T07:07:05;19.78;49.60
65637;DHT22;52327;42.622;23.316;2022-08-01T07:09:31;19.78;50.09
65637;DHT22;52327;42.622;23.316;2022-08-01T07:11:56;19.79;49.93
65637;DHT22;52327;42.622;23.316;2022-08-01T07:14:22;19.82;49.70
65637;DHT22;52327;42.622;23.316;2022-08-01T07:16:49;19.79;50.16
65637;DHT22;52327;42.622;23.316;2022-08-01T07:19:14;19.76;50.29
65637;DHT22;52327;42.622;23.316;2022-08-01T07:21:40;19.89;50.46
65637;DHT22;52327;42.622;23.316;2022-08-01T07:24:07;19.81;50.25
65637;DHT22;52327;42.622;23.316;2022-08-01T07:26:33;19.90;49.88
65637;DHT22;52327;42.622;23.316;2022-08-01T07:28:58;19.99;50.40
65637;DHT22;52327;42.622;23.316;2022-08-01T07:31:23;20.13;50.19
65637;DHT22;52327;42.622;23.316;2022-08-01T07:33:49;20.14;50.70
65637;DHT22;52327;42.622;23.316;2022-08-01T07:36:18;20.12;50.66
65637;DHT22;52327;42.622;23.316;2022-08-01T07:38:44;20.02;50.45
65637;DHT22;52327;42.622;23.316;2022-08-01T07:41:10;20.24;51.46
65637;DHT22;52327;42.622;23.316;2022-08-01T07:43:36;20.61;50.55
65637;DHT22;52327;42.622;23.316;2022-08-01T07:46:03;20.75;49.81
65637;DHT22;52327;42.622;23.316;2022-08-01T07:48:28;20.85;48.69
65637;DHT22;52327;42.622;23.316;2022-08-01T07:50:54;20.96;48.90
65637;DHT22;52327;42.622;23.316;2022-08-01T07:53:20;21.08;49.08
65637;DHT22;52327;42.622;23.316;2022-08-01T07:55:45;21.32;47.39
65637;DHT22;52327;42.622;23.316;2022-08-01T07:58:10;21.29;47.65
65637;DHT22;52327;42.622;23.316;2022-08-01T08:00:36;20.88;48.05
65637;DHT22;52327;42.622;23.316;2022-08-01T08:03:01;20.78;48.11
65637;DHT22;52327;42.622;23.316;2022-08-01T08:05:27;20.87;49.40
65637;DHT22;52327;42.622;23.316;2022-08-01T08:07:52;20.90;47.83
65637;DHT22;52327;42.622;23.316;2022-08-01T08:10:18;20.99;47.08
65637;DHT22;52327;42.622;23.316;2022-08-01T08:12:43;20.84;47.87
65637;DHT22;52327;42.622;23.316;2022-08-01T08:15:11;21.05;48.56
65637;DHT22;52327;42.622;23.316;2022-08-01T08:17:36;21.06;48.10
65637;DHT22;52327;42.622;23.316;2022-08-01T08:20:04;21.14;47.42
65637;DHT22;52327;42.622;23.316;2022-08-01T08:22:29;21.41;48.07
65637;DHT22;52327;42.622;23.316;2022-08-01T08:24:55;21.08;47.71
65637;DHT22;52327;42.622;23.316;2022-08-01T08:27:20;20.99;48.23
65637;DHT22;52327;42.622;23.316;2022-08-01T08:29:46;20.91;47.10
65637;DHT22;52327;42.622;23.316;2022-08-01T08:32:11;20.90;47.34
65637;DHT22;52327;42.622;23.316;2022-08-01T08:34:37;20.99;46.78
65637;DHT22;52327;42.622;23.316;2022-08-01T08:37:02;21.08;46.43
65637;DHT22;52327;42.622;23.316;2022-08-01T08:39:28;20.92;46.73
65637;DHT22;52327;42.622;23.316;2022-08-01T08:41:56;21.08;48.51
65637;DHT22;52327;42.622;23.316;2022-08-01T08:44:22;21.29;47.29
65637;DHT22;52327;42.622;23.316;2022-08-01T08:46:49;21.05;46.58
65637;DHT22;52327;42.622;23.316;2022-08-01T08:49:19;20.95;46.16
65637;DHT22;52327;42.622;23.316;2022-08-01T08:51:48;21.01;47.96
65637;DHT22;52327;42.622;23.316;2022-08-01T08:54:15;21.19;47.89
65637;DHT22;52327;42.622;23.316;2022-08-01T08:56:42;21.49;46.29
65637;DHT22;52327;42.622;23.316;2022-08-01T08:59:08;21.62;46.93
65637;DHT22;52327;42.622;23.316;2022-08-01T09:01:36;21.33;45.85
65637;DHT22;52327;42.622;23.316;2022-08-01T09:04:05;21.22;46.60
65637;DHT22;52327;42.622;23.316;2022-08-01T09:06:31;21.33;47.27
65637;DHT22;52327;42.622;23.316;2022-08-01T09:08:57;21.36;45.60
65637;DHT22;52327;42.622;23.316;2022-08-01T09:11:23;21.16;45.41
65637;DHT22;52327;42.622;23.316;2022-08-01T09:14:10;21.09;46.56
65637;DHT22;52327;42.622;23.316;2022-08-01T09:16:40;21.25;48.24
65637;DHT22;52327;42.622;23.316;2022-08-01T09:19:15;21.45;46.63
65637;DHT22;52327;42.622;23.316;2022-08-01T09:21:58;21.45;46.25
65637;DHT22;52327;42.622;23.316;2022-08-01T09:24:25;21.53;46.19
65637;DHT22;52327;42.622;23.316;2022-08-01T09:26:52;21.57;45.82
65637;DHT22;52327;42.622;23.316;2022-08-01T09:29:21;21.50;46.19
65637;DHT22;52327;42.622;23.316;2022-08-01T09:31:47;21.53;46.82
65637;DHT22;52327;42.622;23.316;2022-08-01T09:34:26;21.62;46.06
65637;DHT22;52327;42.622;23.316;2022-08-01T09:36:59;21.56;46.65
65637;DHT22;52327;42.622;23.316;2022-08-01T09:41:52;21.87;46.87
65637;DHT22;52327;42.622;23.316;2022-08-01T09:44:18;21.76;46.88
65637;DHT22;52327;42.622;23.316;2022-08-01T09:46:50;21.69;47.38
65637;DHT22;52327;42.622;23.316;2022-08-01T09:49:27;21.79;46.96
65637;DHT22;52327;42.622;23.316;2022-08-01T09:51:52;21.94;46.94
65637;DHT22;52327;42.622;23.316;2022-08-01T09:54:29;21.98;46.96
65637;DHT22;52327;42.622;23.316;2022-08-01T09:57:10;21.92;47.72
65637;DHT22;52327;42.622;23.316;2022-08-01T09:59:38;21.74;48.27
65637;DHT22;52327;42.622;23.316;2022-08-01T10:02:08;22.00;48.75
65637;DHT22;52327;42.622;23.316;2022-08-01T10:04:33;22.18;48.56
65637;DHT22;52327;42.622;23.316;2022-08-01T10:07:07;22.34;46.89
65637;DHT22;52327;42.622;23.316;2022-08-01T10:09:35;22.14;46.62
65637;DHT22;52327;42.622;23.316;2022-08-01T10:12:02;22.13;46.74
65637;DHT22;52327;42.622;23.316;2022-08-01T10:14:28;22.11;45.86
65637;DHT22;52327;42.622;23.316;2022-08-01T10:16:56;22.37;45.47
65637;DHT22;52327;42.622;23.316;2022-08-01T10:19:24;22.56;46.10
65637;DHT22;52327;42.622;23.316;2022-08-01T10:21:54;22.52;45.18
65637;DHT22;52327;42.622;23.316;2022-08-01T10:24:20;22.49;45.39
65637;DHT22;52327;42.622;23.316;2022-08-01T10:26:48;22.43;45.25
65637;DHT22;52327;42.622;23.316;2022-08-01T10:29:16;22.56;46.52
65637;DHT22;52327;42.622;23.316;2022-08-01T10:31:44;22.52;47.29
65637;DHT22;52327;42.622;23.316;2022-08-01T10:34:10;22.69;45.98
65637;DHT22;52327;42.622;23.316;2022-08-01T10:36:37;22.76;44.51
65637;DHT22;52327;42.622;23.316;2022-08-01T10:39:05;22.54;43.75
65637;DHT22;52327;42.622;23.316;2022-08-01T10:41:33;22.81;43.46
65637;DHT22;52327;42.622;23.316;2022-08-01T10:44:00;22.55;43.11
65637;DHT22;52327;42.622;23.316;2022-08-01T10:46:27;22.43;44.29
65637;DHT22;52327;42.622;23.316;2022-08-01T10:49:06;22.52;45.48
65637;DHT22;52327;42.622;23.316;2022-08-01T10:51:35;22.45;44.80
65637;DHT22;52327;42.622;23.316;2022-08-01T10:54:05;22.65;43.31
65637;DHT22;52327;42.622;23.316;2022-08-01T10:56:49;22.69;44.41
65637;DHT22;52327;42.622;23.316;2022-08-01T10:59:26;22.82;43.37
65637;DHT22;52327;42.622;23.316;2022-08-01T11:02:02;22.82;43.85
65637;DHT22;52327;42.622;23.316;2022-08-01T11:04:34;22.92;44.02
65637;DHT22;52327;42.622;23.316;2022-08-01T11:07:08;22.68;44.48
65637;DHT22;52327;42.622;23.316;2022-08-01T11:09:42;22.76;44.20
65637;DHT22;52327;42.622;23.316;2022-08-01T11:12:09;22.89;43.99
65637;DHT22;52327;42.622;23.316;2022-08-01T11:17:38;22.89;44.24
65637;DHT22;52327;42.622;23.316;2022-08-01T11:20:11;22.86;44.19
65637;DHT22;52327;42.622;23.316;2022-08-01T11:25:25;22.94;43.22
65637;DHT22;52327;42.622;23.316;2022-08-01T11:38:37;23.26;43.69
65637;DHT22;52327;42.622;23.316;2022-08-01T11:41:12;23.34;44.13
65637;DHT22;52327;42.622;23.316;2022-08-01T11:43:58;23.68;43.87
65637;DHT22;52327;42.622;23.316;2022-08-01T11:46:46;24.01;42.91
65637;DHT22;52327;42.622;23.316;2022-08-01T11:52:09;23.66;43.23
65637;DHT22;52327;42.622;23.316;2022-08-01T11:54:57;23.78;43.60
65637;DHT22;52327;42.622;23.316;2022-08-01T11:57:24;24.80;42.64
65637;DHT22;52327;42.622;23.316;2022-08-01T11:59:52;26.23;38.46
65637;DHT22;52327;42.622;23.316;2022-08-01T12:02:24;26.37;37.01
65637;DHT22;52327;42.622;23.316;2022-08-01T12:04:53;28.06;36.24
65637;DHT22;52327;42.622;23.316;2022-08-01T12:07:20;29.18;33.63
65637;DHT22;52327;42.622;23.316;2022-08-01T12:09:47;28.48;34.38
65637;DHT22;52327;42.622;23.316;2022-08-01T12:12:16;29.66;33.38
65637;DHT22;52327;42.622;23.316;2022-08-01T12:14:43;30.03;33.14
65637;DHT22;52327;42.622;23.316;2022-08-01T12:17:08;30.24;31.74
65637;DHT22;52327;42.622;23.316;2022-08-01T12:19:33;31.23;29.35
65637;DHT22;52327;42.622;23.316;2022-08-01T12:22:27;32.82;29.04
65637;DHT22;52327;42.622;23.316;2022-08-01T12:24:53;33.95;26.73
65637;DHT22;52327;42.622;23.316;2022-08-01T12:27:30;32.29;28.89
65637;DHT22;52327;42.622;23.316;2022-08-01T12:29:59;31.36;30.98
65637;DHT22;52327;42.622;23.316;2022-08-01T12:32:31;30.74;32.51
65637;DHT22;52327;42.622;23.316;2022-08-01T12:35:01;31.94;30.49
65637;DHT22;52327;42.622;23.316;2022-08-01T12:37:27;32.49;27.45
65637;DHT22;52327;42.622;23.316;2022-08-01T12:39:53;32.35;27.68
65637;DHT22;52327;42.622;23.316;2022-08-01T12:42:18;33.62;27.53
65637;DHT22;52327;42.622;23.316;2022-08-01T12:44:47;35.33;25.73
65637;DHT22;52327;42.622;23.316;2022-08-01T12:47:13;34.92;25.13
65637;DHT22;52327;42.622;23.316;2022-08-01T12:49:41;32.24;27.91
65637;DHT22;52327;42.622;23.316;2022-08-01T12:52:07;32.48;28.04
65637;DHT22;52327;42.622;23.316;2022-08-01T12:57:49;33.07;27.96
65637;DHT22;52327;42.622;23.316;2022-08-01T13:00:21;32.15;28.82
65637;DHT22;52327;42.622;23.316;2022-08-01T13:02:48;30.48;30.76
65637;DHT22;52327;42.622;23.316;2022-08-01T13:05:16;32.07;28.67
65637;DHT22;52327;42.622;23.316;2022-08-01T13:07:45;32.42;27.96
65637;DHT22;52327;42.622;23.316;2022-08-01T13:10:12;33.29;27.70
65637;DHT22;52327;42.622;23.316;2022-08-01T13:12:39;33.61;25.96
65637;DHT22;52327;42.622;23.316;2022-08-01T13:15:38;33.68;25.94
65637;DHT22;52327;42.622;23.316;2022-08-01T13:18:22;32.25;27.05
65637;DHT22;52327;42.622;23.316;2022-08-01T13:20:48;33.06;27.51
65637;DHT22;52327;42.622;23.316;2022-08-01T13:23:16;34.16;26.06
65637;DHT22;52327;42.622;23.316;2022-08-01T13:25:55;34.87;24.85
65637;DHT22;52327;42.622;23.316;2022-08-01T13:28:27;34.23;25.30
65637;DHT22;52327;42.622;23.316;2022-08-01T13:31:05;31.63;27.82
65637;DHT22;52327;42.622;23.316;2022-08-01T13:33:46;32.22;28.10
65637;DHT22;52327;42.622;23.316;2022-08-01T13:36:12;30.75;29.13
65637;DHT22;52327;42.622;23.316;2022-08-01T13:38:39;31.92;30.90
65637;DHT22;52327;42.622;23.316;2022-08-01T13:41:23;33.61;26.92
65637;DHT22;52327;42.622;23.316;2022-08-01T13:43:48;35.17;25.40
65637;DHT22;52327;42.622;23.316;2022-08-01T13:46:14;35.62;24.15
65637;DHT22;52327;42.622;23.316;2022-08-01T13:48:40;34.74;25.10
65637;DHT22;52327;42.622;23.316;2022-08-01T13:51:05;32.14;27.04
65637;DHT22;52327;42.622;23.316;2022-08-01T13:53:31;32.35;26.88
65637;DHT22;52327;42.622;23.316;2022-08-01T13:55:56;34.11;25.98
65637;DHT22;52327;42.622;23.316;2022-08-01T13:58:22;33.90;26.03
65637;DHT22;52327;42.622;23.316;2022-08-01T14:00:48;34.35;26.12
65637;DHT22;52327;42.622;23.316;2022-08-01T14:03:13;34.87;26.53
65637;DHT22;52327;42.622;23.316;2022-08-01T14:05:39;33.91;26.65
65637;DHT22;52327;42.622;23.316;2022-08-01T14:08:05;32.96;27.45
65637;DHT22;52327;42.622;23.316;2022-08-01T14:10:31;33.33;26.75
65637;DHT22;52327;42.622;23.316;2022-08-01T14:12:57;33.94;26.65
65637;DHT22;52327;42.622;23.316;2022-08-01T14:15:23;33.43;26.07
65637;DHT22;52327;42.622;23.316;2022-08-01T14:17:49;33.71;27.12
65637;DHT22;52327;42.622;23.316;2022-08-01T14:20:14;34.51;25.99
65637;DHT22;52327;42.622;23.316;2022-08-01T14:22:40;33.92;25.78
65637;DHT22;52327;42.622;23.316;2022-08-01T14:25:06;33.98;25.92
65637;DHT22;52327;42.622;23.316;2022-08-01T14:27:32;34.33;25.71
65637;DHT22;52327;42.622;23.316;2022-08-01T14:30:02;34.92;25.35
65637;DHT22;52327;42.622;23.316;2022-08-01T14:32:27;35.45;24.90
65637;DHT22;52327;42.622;23.316;2022-08-01T14:34:53;35.31;24.69
65637;DHT22;52327;42.622;23.316;2022-08-01T14:37:18;31.71;30.42
65637;DHT22;52327;42.622;23.316;2022-08-01T14:39:43;32.62;28.08
65637;DHT22;52327;42.622;23.316;2022-08-01T14:42:09;29.63;31.83
65637;DHT22;52327;42.622;23.316;2022-08-01T14:44:34;29.36;32.31
65637;DHT22;52327;42.622;23.316;2022-08-01T14:47:00;29.40;32.42
65637;DHT22;52327;42.622;23.316;2022-08-01T14:49:25;29.16;34.96
65637;DHT22;52327;42.622;23.316;2022-08-01T14:51:51;28.69;34.11
65637;DHT22;52327;42.622;23.316;2022-08-01T14:54:16;28.60;34.10
65637;DHT22;52327;42.622;23.316;2022-08-01T14:56:41;28.55;35.02
65637;DHT22;52327;42.622;23.316;2022-08-01T14:59:07;28.46;33.94
65637;DHT22;52327;42.622;23.316;2022-08-01T15:01:32;27.93;34.44
65637;DHT22;52327;42.622;23.316;2022-08-01T15:03:58;28.03;35.37
65637;DHT22;52327;42.622;23.316;2022-08-01T15:06:23;27.97;35.25
65637;DHT22;52327;42.622;23.316;2022-08-01T15:08:48;27.79;36.60
65637;DHT22;52327;42.622;23.316;2022-08-01T15:11:14;27.79;36.55
65637;DHT22;52327;42.622;23.316;2022-08-01T15:13:39;27.65;34.97
65637;DHT22;52327;42.622;23.316;2022-08-01T15:16:05;27.61;36.78
65637;DHT22;52327;42.622;23.316;2022-08-01T15:18:30;27.39;36.53
65637;DHT22;52327;42.622;23.316;2022-08-01T15:20:56;26.97;36.26
65637;DHT22;52327;42.622;23.316;2022-08-01T15:23:22;26.52;37.84
65637;DHT22;52327;42.622;23.316;2022-08-01T15:25:48;26.47;37.81
65637;DHT22;52327;42.622;23.316;2022-08-01T15:28:14;26.93;38.85
65637;DHT22;52327;42.622;23.316;2022-08-01T15:30:39;27.20;37.70
65637;DHT22;52327;42.622;23.316;2022-08-01T15:33:05;26.97;36.64
65637;DHT22;52327;42.622;23.316;2022-08-01T15:35:31;26.90;37.67
65637;DHT22;52327;42.622;23.316;2022-08-01T15:37:56;26.83;38.49
65637;DHT22;52327;42.622;23.316;2022-08-01T15:40:22;26.65;36.63
65637;DHT22;52327;42.622;23.316;2022-08-01T15:42:47;26.11;37.87
65637;DHT22;52327;42.622;23.316;2022-08-01T15:45:13;25.88;38.38
65637;DHT22;52327;42.622;23.316;2022-08-01T15:47:43;26.06;38.50
65637;DHT22;52327;42.622;23.316;2022-08-01T15:50:09;25.80;38.62
65637;DHT22;52327;42.622;23.316;2022-08-01T15:52:35;25.84;40.60